sensor_id;sensor_type;location;lat;lon;timestamp;P1;durP1;ratioP1;P2;durP2;ratioP2
51451;SDS011;37521;52.020;-1.740;2022-09-09T00:00:44;1.33;;;1.02;;
51451;SDS011;37521;52.020;-1.740;2022-09-09T00:03:17;1.13;;;1.02;;
51451;SDS011;37521;52.020;-1.740;2022-09-09T00:05:51;2.08;;;1.17;;
51451;SDS011;37521;52.020;-1.740;2022-09-09T00:08:31;1.63;;;0.93;;
51451;SDS011;37521;52.020;-1.740;2022-09-09T00:11:09;2.13;;;1.25;;
51451;SDS011;37521;52.020;-1.740;2022-09-09T00:13:46;1.20;;;1.10;;
51451;SDS011;37521;52.020;-1.740;2022-09-09T00:16:21;5.50;;;1.42;;
51451;SDS011;37521;52.020;-1.740;2022-09-09T00:18:55;1.65;;;0.90;;
51451;SDS011;37521;52.020;-1.740;2022-09-09T00:21:30;1.50;;;0.93;;
51451;SDS011;37521;52.020;-1.740;2022-09-09T00:24:08;3.10;;;1.10;;
51451;SDS011;37521;52.020;-1.740;2022-09-09T00:26:41;2.47;;;1.58;;
51451;SDS011;37521;52.020;-1.740;2022-09-09T00:29:14;1.38;;;1.27;;
51451;SDS011;37521;52.020;-1.740;2022-09-09T00:31:51;2.00;;;1.38;;
51451;SDS011;37521;52.020;-1.740;2022-09-09T00:34:26;1.90;;;1.13;;
51451;SDS011;37521;52.020;-1.740;2022-09-09T00:36:55;1.17;;;1.08;;
51451;SDS011;37521;52.020;-1.740;2022-09-09T00:39:27;1.58;;;1.48;;
51451;SDS011;37521;52.020;-1.740;2022-09-09T00:42:06;6.72;;;1.63;;
51451;SDS011;37521;52.020;-1.740;2022-09-09T00:44:46;1.30;;;1.17;;
51451;SDS011;37521;52.020;-1.740;2022-09-09T00:47:25;3.03;;;1.50;;
51451;SDS011;37521;52.020;-1.740;2022-09-09T00:50:10;2.33;;;1.38;;
51451;SDS011;37521;52.020;-1.740;2022-09-09T00:52:46;2.28;;;1.50;;
51451;SDS011;37521;52.020;-1.740;2022-09-09T00:55:28;1.33;;;1.02;;
51451;SDS011;37521;52.020;-1.740;2022-09-09T00:58:06;0.85;;;0.85;;
51451;SDS011;37521;52.020;-1.740;2022-09-09T01:00:38;1.15;;;1.05;;
51451;SDS011;37521;52.020;-1.740;2022-09-09T01:03:15;1.00;;;0.70;;
51451;SDS011;37521;52.020;-1.740;2022-09-09T01:05:54;1.02;;;0.80;;
51451;SDS011;37521;52.020;-1.740;2022-09-09T01:08:36;1.00;;;0.98;;
51451;SDS011;37521;52.020;-1.740;2022-09-09T01:11:28;0.98;;;0.95;;
51451;SDS011;37521;52.020;-1.740;2022-09-09T01:14:10;0.70;;;0.70;;
51451;SDS011;37521;52.020;-1.740;2022-09-09T01:16:47;1.30;;;1.17;;
51451;SDS011;37521;52.020;-1.740;2022-09-09T01:19:18;1.20;;;0.70;;
51451;SDS011;37521;52.020;-1.740;2022-09-09T01:21:55;1.75;;;1.15;;
51451;SDS011;37521;52.020;-1.740;2022-09-09T01:24:34;2.17;;;1.35;;
51451;SDS011;37521;52.020;-1.740;2022-09-09T01:27:19;2.95;;;1.00;;
51451;SDS011;37521;52.020;-1.740;2022-09-09T01:29:49;4.28;;;1.08;;
51451;SDS011;37521;52.020;-1.740;2022-09-09T01:35:10;1.10;;;0.80;;
51451;SDS011;37521;52.020;-1.740;2022-09-09T01:37:42;4.32;;;1.50;;
51451;SDS011;37521;52.020;-1.740;2022-09-09T01:40:11;3.38;;;1.15;;
51451;SDS011;37521;52.020;-1.740;2022-09-09T01:42:40;2.40;;;1.40;;
51451;SDS011;37521;52.020;-1.740;2022-09-09T01:45:09;2.67;;;1.70;;
51451;SDS011;37521;52.020;-1.740;2022-09-09T01:47:37;4.18;;;1.30;;
51451;SDS011;37521;52.020;-1.740;2022-09-09T01:50:16;2.20;;;1.08;;
51451;SDS011;37521;52.020;-1.740;2022-09-09T01:52:45;3.65;;;1.70;;
51451;SDS011;37521;52.020;-1.740;2022-09-09T01:55:19;4.18;;;2.30;;
51451;SDS011;37521;52.020;-1.740;2022-09-09T01:58:01;6.72;;;2.60;;
51451;SDS011;37521;52.020;-1.740;2022-09-09T02:00:48;5.20;;;2.63;;
51451;SDS011;37521;52.020;-1.740;2022-09-09T02:03:25;4.32;;;3.30;;
51451;SDS011;37521;52.020;-1.740;2022-09-09T02:06:05;4.78;;;3.72;;
51451;SDS011;37521;52.020;-1.740;2022-09-09T02:08:42;5.80;;;3.83;;
51451;SDS011;37521;52.020;-1.740;2022-09-09T02:11:16;4.53;;;2.92;;
51451;SDS011;37521;52.020;-1.740;2022-09-09T02:13:54;8.05;;;3.88;;
51451;SDS011;37521;52.020;-1.740;2022-09-09T02:16:28;4.88;;;2.88;;
51451;SDS011;37521;52.020;-1.740;2022-09-09T02:19:03;6.90;;;4.03;;
51451;SDS011;37521;52.020;-1.740;2022-09-09T02:21:55;4.95;;;3.33;;
51451;SDS011;37521;52.020;-1.740;2022-09-09T02:24:24;5.90;;;3.03;;
51451;SDS011;37521;52.020;-1.740;2022-09-09T02:27:08;5.15;;;3.38;;
51451;SDS011;37521;52.020;-1.740;2022-09-09T02:29:41;5.47;;;3.38;;
51451;SDS011;37521;52.020;-1.740;2022-09-09T02:32:17;6.03;;;3.50;;
51451;SDS011;37521;52.020;-1.740;2022-09-09T02:34:51;4.85;;;3.97;;
51451;SDS011;37521;52.020;-1.740;2022-09-09T02:37:24;6.38;;;3.75;;
51451;SDS011;37521;52.020;-1.740;2022-09-09T02:42:25;5.78;;;3.80;;
51451;SDS011;37521;52.020;-1.740;2022-09-09T02:44:56;8.38;;;4.47;;
51451;SDS011;37521;52.020;-1.740;2022-09-09T02:47:26;6.55;;;3.30;;
51451;SDS011;37521;52.020;-1.740;2022-09-09T02:50:11;7.40;;;3.20;;
51451;SDS011;37521;52.020;-1.740;2022-09-09T02:52:46;6.93;;;3.70;;
51451;SDS011;37521;52.020;-1.740;2022-09-09T02:55:23;7.63;;;3.63;;
51451;SDS011;37521;52.020;-1.740;2022-09-09T02:58:01;5.15;;;3.45;;
51451;SDS011;37521;52.020;-1.740;2022-09-09T03:00:35;6.82;;;4.22;;
51451;SDS011;37521;52.020;-1.740;2022-09-09T03:03:03;8.13;;;4.35;;
51451;SDS011;37521;52.020;-1.740;2022-09-09T03:05:33;5.53;;;3.58;;
51451;SDS011;37521;52.020;-1.740;2022-09-09T03:08:02;5.97;;;3.38;;
51451;SDS011;37521;52.020;-1.740;2022-09-09T03:10:32;5.68;;;3.53;;
51451;SDS011;37521;52.020;-1.740;2022-09-09T03:13:02;6.45;;;3.47;;
51451;SDS011;37521;52.020;-1.740;2022-09-09T03:15:38;5.85;;;3.20;;
51451;SDS011;37521;52.020;-1.740;2022-09-09T03:18:09;5.63;;;3.43;;
51451;SDS011;37521;52.020;-1.740;2022-09-09T03:20:37;4.75;;;3.03;;
51451;SDS011;37521;52.020;-1.740;2022-09-09T03:23:07;5.72;;;3.15;;
51451;SDS011;37521;52.020;-1.740;2022-09-09T03:25:46;6.57;;;3.45;;
51451;SDS011;37521;52.020;-1.740;2022-09-09T03:28:18;8.15;;;3.38;;
51451;SDS011;37521;52.020;-1.740;2022-09-09T03:30:50;4.18;;;3.03;;
51451;SDS011;37521;52.020;-1.740;2022-09-09T03:33:20;5.47;;;3.47;;
51451;SDS011;37521;52.020;-1.740;2022-09-09T03:35:48;4.22;;;2.90;;
51451;SDS011;37521;52.020;-1.740;2022-09-09T03:38:18;5.60;;;3.63;;
51451;SDS011;37521;52.020;-1.740;2022-09-09T03:40:49;7.07;;;3.35;;
51451;SDS011;37521;52.020;-1.740;2022-09-09T03:43:22;6.15;;;3.17;;
51451;SDS011;37521;52.020;-1.740;2022-09-09T03:45:53;7.18;;;3.97;;
51451;SDS011;37521;52.020;-1.740;2022-09-09T03:48:25;5.55;;;3.55;;
51451;SDS011;37521;52.020;-1.740;2022-09-09T03:50:56;7.60;;;4.30;;
51451;SDS011;37521;52.020;-1.740;2022-09-09T03:53:29;9.10;;;4.25;;
51451;SDS011;37521;52.020;-1.740;2022-09-09T03:55:57;9.35;;;4.00;;
51451;SDS011;37521;52.020;-1.740;2022-09-09T03:58:29;8.30;;;4.05;;
51451;SDS011;37521;52.020;-1.740;2022-09-09T04:01:05;6.93;;;3.58;;
51451;SDS011;37521;52.020;-1.740;2022-09-09T04:03:36;6.55;;;4.07;;
51451;SDS011;37521;52.020;-1.740;2022-09-09T04:06:06;7.60;;;4.18;;
51451;SDS011;37521;52.020;-1.740;2022-09-09T04:08:44;7.70;;;3.83;;
51451;SDS011;37521;52.020;-1.740;2022-09-09T04:11:15;8.00;;;4.68;;
51451;SDS011;37521;52.020;-1.740;2022-09-09T04:13:46;7.13;;;4.05;;
51451;SDS011;37521;52.020;-1.740;2022-09-09T04:16:18;9.43;;;4.05;;
51451;SDS011;37521;52.020;-1.740;2022-09-09T04:18:47;5.65;;;4.20;;
51451;SDS011;37521;52.020;-1.740;2022-09-09T04:21:17;8.40;;;4.28;;
51451;SDS011;37521;52.020;-1.740;2022-09-09T04:23:45;10.23;;;4.68;;
51451;SDS011;37521;52.020;-1.740;2022-09-09T04:26:13;6.45;;;4.10;;
51451;SDS011;37521;52.020;-1.740;2022-09-09T04:28:44;8.50;;;4.30;;
51451;SDS011;37521;52.020;-1.740;2022-09-09T04:31:17;9.63;;;4.43;;
51451;SDS011;37521;52.020;-1.740;2022-09-09T04:33:52;9.15;;;4.82;;
51451;SDS011;37521;52.020;-1.740;2022-09-09T04:36:21;7.80;;;4.10;;
51451;SDS011;37521;52.020;-1.740;2022-09-09T04:38:54;8.40;;;4.30;;
51451;SDS011;37521;52.020;-1.740;2022-09-09T04:41:22;10.48;;;5.35;;
51451;SDS011;37521;52.020;-1.740;2022-09-09T04:43:52;7.75;;;4.50;;
51451;SDS011;37521;52.020;-1.740;2022-09-09T04:46:23;8.35;;;5.00;;
51451;SDS011;37521;52.020;-1.740;2022-09-09T04:48:51;13.35;;;5.30;;
51451;SDS011;37521;52.020;-1.740;2022-09-09T04:51:22;10.25;;;5.10;;
51451;SDS011;37521;52.020;-1.740;2022-09-09T04:53:51;11.15;;;5.05;;
51451;SDS011;37521;52.020;-1.740;2022-09-09T04:56:21;9.27;;;5.25;;
51451;SDS011;37521;52.020;-1.740;2022-09-09T04:58:52;10.93;;;5.65;;
51451;SDS011;37521;52.020;-1.740;2022-09-09T05:01:25;11.88;;;5.72;;
51451;SDS011;37521;52.020;-1.740;2022-09-09T05:04:00;15.02;;;6.07;;
51451;SDS011;37521;52.020;-1.740;2022-09-09T05:06:31;13.60;;;6.82;;
51451;SDS011;37521;52.020;-1.740;2022-09-09T05:09:00;14.27;;;6.38;;
51451;SDS011;37521;52.020;-1.740;2022-09-09T05:11:29;15.98;;;7.07;;
51451;SDS011;37521;52.020;-1.740;2022-09-09T05:14:20;19.02;;;7.32;;
51451;SDS011;37521;52.020;-1.740;2022-09-09T05:16:51;13.05;;;6.57;;
51451;SDS011;37521;52.020;-1.740;2022-09-09T05:19:20;19.45;;;6.45;;
51451;SDS011;37521;52.020;-1.740;2022-09-09T05:21:50;14.10;;;6.57;;
51451;SDS011;37521;52.020;-1.740;2022-09-09T05:24:25;10.68;;;5.97;;
51451;SDS011;37521;52.020;-1.740;2022-09-09T05:26:56;14.27;;;6.68;;
51451;SDS011;37521;52.020;-1.740;2022-09-09T05:29:28;15.38;;;6.82;;
51451;SDS011;37521;52.020;-1.740;2022-09-09T05:31:57;19.63;;;6.90;;
51451;SDS011;37521;52.020;-1.740;2022-09-09T05:34:25;17.42;;;7.43;;
51451;SDS011;37521;52.020;-1.740;2022-09-09T05:36:54;15.35;;;6.43;;
51451;SDS011;37521;52.020;-1.740;2022-09-09T05:39:23;15.75;;;6.78;;
51451;SDS011;37521;52.020;-1.740;2022-09-09T05:41:51;12.32;;;6.80;;
51451;SDS011;37521;52.020;-1.740;2022-09-09T05:44:20;16.23;;;6.63;;
51451;SDS011;37521;52.020;-1.740;2022-09-09T05:46:50;13.60;;;6.65;;
51451;SDS011;37521;52.020;-1.740;2022-09-09T05:49:20;13.82;;;6.80;;
51451;SDS011;37521;52.020;-1.740;2022-09-09T05:51:49;18.05;;;6.40;;
51451;SDS011;37521;52.020;-1.740;2022-09-09T05:54:19;13.50;;;5.65;;
51451;SDS011;37521;52.020;-1.740;2022-09-09T05:56:50;13.10;;;6.53;;
51451;SDS011;37521;52.020;-1.740;2022-09-09T05:59:20;14.38;;;6.60;;
51451;SDS011;37521;52.020;-1.740;2022-09-09T06:01:51;13.40;;;5.40;;
51451;SDS011;37521;52.020;-1.740;2022-09-09T06:04:27;16.25;;;6.57;;
51451;SDS011;37521;52.020;-1.740;2022-09-09T06:06:55;13.15;;;5.80;;
51451;SDS011;37521;52.020;-1.740;2022-09-09T06:09:23;13.73;;;6.45;;
51451;SDS011;37521;52.020;-1.740;2022-09-09T06:11:52;13.77;;;5.85;;
51451;SDS011;37521;52.020;-1.740;2022-09-09T06:14:22;13.63;;;6.32;;
51451;SDS011;37521;52.020;-1.740;2022-09-09T06:16:52;11.05;;;6.32;;
51451;SDS011;37521;52.020;-1.740;2022-09-09T06:19:22;12.20;;;6.22;;
51451;SDS011;37521;52.020;-1.740;2022-09-09T06:21:57;11.57;;;6.38;;
51451;SDS011;37521;52.020;-1.740;2022-09-09T06:24:28;8.47;;;5.27;;
51451;SDS011;37521;52.020;-1.740;2022-09-09T06:27:00;13.38;;;6.15;;
51451;SDS011;37521;52.020;-1.740;2022-09-09T06:29:32;11.20;;;5.35;;
51451;SDS011;37521;52.020;-1.740;2022-09-09T06:32:01;14.38;;;6.63;;
51451;SDS011;37521;52.020;-1.740;2022-09-09T06:34:30;13.15;;;5.70;;
51451;SDS011;37521;52.020;-1.740;2022-09-09T06:37:00;10.95;;;5.28;;
51451;SDS011;37521;52.020;-1.740;2022-09-09T06:39:35;9.25;;;4.93;;
51451;SDS011;37521;52.020;-1.740;2022-09-09T06:42:03;10.32;;;4.97;;
51451;SDS011;37521;52.020;-1.740;2022-09-09T06:44:52;10.90;;;5.43;;
51451;SDS011;37521;52.020;-1.740;2022-09-09T06:47:30;9.82;;;4.07;;
51451;SDS011;37521;52.020;-1.740;2022-09-09T06:50:00;8.63;;;4.40;;
51451;SDS011;37521;52.020;-1.740;2022-09-09T06:52:33;8.98;;;4.82;;
51451;SDS011;37521;52.020;-1.740;2022-09-09T06:55:02;7.65;;;4.57;;
51451;SDS011;37521;52.020;-1.740;2022-09-09T06:57:32;9.50;;;4.18;;
51451;SDS011;37521;52.020;-1.740;2022-09-09T07:00:05;9.75;;;3.78;;
51451;SDS011;37521;52.020;-1.740;2022-09-09T07:02:35;7.55;;;3.72;;
51451;SDS011;37521;52.020;-1.740;2022-09-09T07:05:08;5.97;;;3.47;;
51451;SDS011;37521;52.020;-1.740;2022-09-09T07:07:39;5.93;;;3.47;;
51451;SDS011;37521;52.020;-1.740;2022-09-09T07:10:09;8.32;;;3.58;;
51451;SDS011;37521;52.020;-1.740;2022-09-09T07:12:37;8.63;;;4.30;;
51451;SDS011;37521;52.020;-1.740;2022-09-09T07:15:09;6.90;;;3.72;;
51451;SDS011;37521;52.020;-1.740;2022-09-09T07:17:41;6.28;;;3.70;;
51451;SDS011;37521;52.020;-1.740;2022-09-09T07:20:09;6.15;;;3.53;;
51451;SDS011;37521;52.020;-1.740;2022-09-09T07:22:39;5.00;;;3.38;;
51451;SDS011;37521;52.020;-1.740;2022-09-09T07:25:09;5.63;;;3.85;;
51451;SDS011;37521;52.020;-1.740;2022-09-09T07:27:38;5.03;;;2.95;;
51451;SDS011;37521;52.020;-1.740;2022-09-09T07:30:08;7.07;;;3.30;;
51451;SDS011;37521;52.020;-1.740;2022-09-09T07:32:46;4.53;;;3.13;;
51451;SDS011;37521;52.020;-1.740;2022-09-09T07:35:15;6.30;;;3.78;;
51451;SDS011;37521;52.020;-1.740;2022-09-09T07:37:45;5.45;;;3.58;;
51451;SDS011;37521;52.020;-1.740;2022-09-09T07:40:18;3.72;;;3.13;;
51451;SDS011;37521;52.020;-1.740;2022-09-09T07:42:49;4.60;;;3.13;;
51451;SDS011;37521;52.020;-1.740;2022-09-09T07:45:18;6.90;;;3.47;;
51451;SDS011;37521;52.020;-1.740;2022-09-09T07:47:46;5.45;;;3.13;;
51451;SDS011;37521;52.020;-1.740;2022-09-09T07:50:16;3.88;;;2.85;;
51451;SDS011;37521;52.020;-1.740;2022-09-09T07:52:47;5.90;;;3.30;;
51451;SDS011;37521;52.020;-1.740;2022-09-09T07:55:15;4.90;;;2.83;;
51451;SDS011;37521;52.020;-1.740;2022-09-09T07:57:44;3.70;;;2.63;;
51451;SDS011;37521;52.020;-1.740;2022-09-09T08:00:14;3.28;;;2.33;;
51451;SDS011;37521;52.020;-1.740;2022-09-09T08:02:48;3.10;;;2.72;;
51451;SDS011;37521;52.020;-1.740;2022-09-09T08:05:16;7.00;;;2.72;;
51451;SDS011;37521;52.020;-1.740;2022-09-09T08:07:46;4.50;;;2.70;;
51451;SDS011;37521;52.020;-1.740;2022-09-09T08:10:15;4.07;;;2.40;;
51451;SDS011;37521;52.020;-1.740;2022-09-09T08:12:47;5.13;;;2.67;;
51451;SDS011;37521;52.020;-1.740;2022-09-09T08:15:36;2.53;;;2.25;;
51451;SDS011;37521;52.020;-1.740;2022-09-09T08:18:04;5.28;;;3.05;;
51451;SDS011;37521;52.020;-1.740;2022-09-09T08:20:35;2.85;;;2.55;;
51451;SDS011;37521;52.020;-1.740;2022-09-09T08:23:05;5.15;;;2.50;;
51451;SDS011;37521;52.020;-1.740;2022-09-09T08:25:34;2.65;;;1.90;;
51451;SDS011;37521;52.020;-1.740;2022-09-09T08:28:02;2.55;;;2.05;;
51451;SDS011;37521;52.020;-1.740;2022-09-09T08:30:30;4.55;;;2.00;;
51451;SDS011;37521;52.020;-1.740;2022-09-09T08:32:59;3.45;;;1.95;;
51451;SDS011;37521;52.020;-1.740;2022-09-09T08:35:27;2.22;;;1.55;;
51451;SDS011;37521;52.020;-1.740;2022-09-09T08:38:00;3.28;;;2.03;;
51451;SDS011;37521;52.020;-1.740;2022-09-09T08:40:37;3.85;;;1.98;;
51451;SDS011;37521;52.020;-1.740;2022-09-09T08:43:13;4.18;;;1.98;;
51451;SDS011;37521;52.020;-1.740;2022-09-09T08:45:46;2.45;;;1.50;;
51451;SDS011;37521;52.020;-1.740;2022-09-09T08:48:29;2.65;;;1.70;;
51451;SDS011;37521;52.020;-1.740;2022-09-09T08:51:11;1.88;;;1.30;;
51451;SDS011;37521;52.020;-1.740;2022-09-09T08:53:43;2.70;;;1.75;;
51451;SDS011;37521;52.020;-1.740;2022-09-09T08:56:16;2.42;;;1.45;;
51451;SDS011;37521;52.020;-1.740;2022-09-09T08:58:52;1.60;;;1.50;;
51451;SDS011;37521;52.020;-1.740;2022-09-09T09:01:39;3.90;;;1.52;;
51451;SDS011;37521;52.020;-1.740;2022-09-09T09:04:26;2.53;;;1.73;;
51451;SDS011;37521;52.020;-1.740;2022-09-09T09:07:05;3.67;;;1.17;;
51451;SDS011;37521;52.020;-1.740;2022-09-09T09:09:46;1.20;;;1.10;;
51451;SDS011;37521;52.020;-1.740;2022-09-09T09:12:28;1.30;;;1.17;;
51451;SDS011;37521;52.020;-1.740;2022-09-09T09:15:05;0.93;;;0.80;;
51451;SDS011;37521;52.020;-1.740;2022-09-09T09:17:43;2.28;;;1.05;;
51451;SDS011;37521;52.020;-1.740;2022-09-09T09:20:12;0.95;;;0.95;;
51451;SDS011;37521;52.020;-1.740;2022-09-09T09:22:45;2.03;;;1.13;;
51451;SDS011;37521;52.020;-1.740;2022-09-09T09:25:19;1.33;;;1.17;;
51451;SDS011;37521;52.020;-1.740;2022-09-09T09:27:52;2.80;;;1.48;;
51451;SDS011;37521;52.020;-1.740;2022-09-09T09:30:29;1.33;;;1.23;;
51451;SDS011;37521;52.020;-1.740;2022-09-09T09:33:08;1.52;;;1.23;;
51451;SDS011;37521;52.020;-1.740;2022-09-09T09:35:42;2.60;;;1.30;;
51451;SDS011;37521;52.020;-1.740;2022-09-09T09:38:16;2.55;;;1.25;;
51451;SDS011;37521;52.020;-1.740;2022-09-09T09:41:07;1.42;;;1.00;;
51451;SDS011;37521;52.020;-1.740;2022-09-09T09:43:39;1.65;;;1.48;;
51451;SDS011;37521;52.020;-1.740;2022-09-09T09:46:18;1.50;;;1.40;;
51451;SDS011;37521;52.020;-1.740;2022-09-09T09:48:56;2.78;;;1.55;;
51451;SDS011;37521;52.020;-1.740;2022-09-09T09:51:26;6.53;;;1.63;;
51451;SDS011;37521;52.020;-1.740;2022-09-09T09:54:03;1.52;;;1.42;;
51451;SDS011;37521;52.020;-1.740;2022-09-09T09:56:45;3.30;;;2.13;;
51451;SDS011;37521;52.020;-1.740;2022-09-09T09:59:23;3.25;;;1.85;;
51451;SDS011;37521;52.020;-1.740;2022-09-09T10:02:13;2.50;;;1.77;;
51451;SDS011;37521;52.020;-1.740;2022-09-09T10:04:47;4.00;;;1.80;;
51451;SDS011;37521;52.020;-1.740;2022-09-09T10:07:17;3.05;;;2.10;;
51451;SDS011;37521;52.020;-1.740;2022-09-09T10:09:48;5.72;;;2.05;;
51451;SDS011;37521;52.020;-1.740;2022-09-09T10:12:24;2.83;;;2.15;;
51451;SDS011;37521;52.020;-1.740;2022-09-09T10:15:06;4.57;;;2.30;;
51451;SDS011;37521;52.020;-1.740;2022-09-09T10:17:49;4.23;;;2.37;;
51451;SDS011;37521;52.020;-1.740;2022-09-09T10:20:27;3.53;;;2.17;;
51451;SDS011;37521;52.020;-1.740;2022-09-09T10:23:07;6.18;;;2.33;;
51451;SDS011;37521;52.020;-1.740;2022-09-09T10:25:52;4.50;;;2.65;;
51451;SDS011;37521;52.020;-1.740;2022-09-09T10:28:34;4.85;;;2.08;;
51451;SDS011;37521;52.020;-1.740;2022-09-09T10:31:25;3.40;;;2.10;;
51451;SDS011;37521;52.020;-1.740;2022-09-09T10:34:11;3.58;;;2.40;;
51451;SDS011;37521;52.020;-1.740;2022-09-09T10:36:47;6.88;;;3.00;;
51451;SDS011;37521;52.020;-1.740;2022-09-09T10:39:31;6.72;;;2.63;;
51451;SDS011;37521;52.020;-1.740;2022-09-09T10:42:09;5.32;;;2.70;;
51451;SDS011;37521;52.020;-1.740;2022-09-09T10:44:43;4.60;;;2.67;;
51451;SDS011;37521;52.020;-1.740;2022-09-09T10:47:27;3.53;;;2.15;;
51451;SDS011;37521;52.020;-1.740;2022-09-09T10:50:13;3.85;;;2.30;;
51451;SDS011;37521;52.020;-1.740;2022-09-09T10:53:18;5.47;;;2.22;;
51451;SDS011;37521;52.020;-1.740;2022-09-09T10:56:01;2.42;;;2.08;;
51451;SDS011;37521;52.020;-1.740;2022-09-09T10:58:35;2.80;;;2.38;;
51451;SDS011;37521;52.020;-1.740;2022-09-09T11:01:10;7.20;;;2.78;;
51451;SDS011;37521;52.020;-1.740;2022-09-09T11:04:04;4.50;;;3.25;;
51451;SDS011;37521;52.020;-1.740;2022-09-09T11:06:39;3.55;;;2.67;;
51451;SDS011;37521;52.020;-1.740;2022-09-09T11:09:14;5.68;;;2.45;;
51451;SDS011;37521;52.020;-1.740;2022-09-09T11:11:46;3.72;;;2.80;;
51451;SDS011;37521;52.020;-1.740;2022-09-09T11:14:22;2.58;;;2.38;;
51451;SDS011;37521;52.020;-1.740;2022-09-09T11:17:04;3.47;;;2.05;;
51451;SDS011;37521;52.020;-1.740;2022-09-09T11:22:08;5.32;;;2.28;;
51451;SDS011;37521;52.020;-1.740;2022-09-09T11:24:47;3.33;;;2.10;;
51451;SDS011;37521;52.020;-1.740;2022-09-09T11:27:20;2.63;;;1.70;;
51451;SDS011;37521;52.020;-1.740;2022-09-09T11:30:01;5.18;;;2.45;;
51451;SDS011;37521;52.020;-1.740;2022-09-09T11:33:09;3.47;;;2.42;;
51451;SDS011;37521;52.020;-1.740;2022-09-09T11:35:56;2.88;;;1.77;;
51451;SDS011;37521;52.020;-1.740;2022-09-09T11:38:36;4.38;;;2.25;;
51451;SDS011;37521;52.020;-1.740;2022-09-09T11:41:09;4.05;;;2.15;;
51451;SDS011;37521;52.020;-1.740;2022-09-09T11:43:45;2.20;;;1.80;;
51451;SDS011;37521;52.020;-1.740;2022-09-09T11:46:15;3.72;;;1.85;;
51451;SDS011;37521;52.020;-1.740;2022-09-09T11:48:57;6.03;;;2.30;;
51451;SDS011;37521;52.020;-1.740;2022-09-09T11:51:29;5.63;;;2.47;;
51451;SDS011;37521;52.020;-1.740;2022-09-09T11:53:59;3.67;;;2.25;;
51451;SDS011;37521;52.020;-1.740;2022-09-09T11:56:29;4.88;;;2.42;;
51451;SDS011;37521;52.020;-1.740;2022-09-09T11:59:00;8.82;;;2.92;;
51451;SDS011;37521;52.020;-1.740;2022-09-09T12:01:37;4.93;;;2.53;;
51451;SDS011;37521;52.020;-1.740;2022-09-09T12:04:12;3.08;;;2.55;;
51451;SDS011;37521;52.020;-1.740;2022-09-09T12:06:50;4.72;;;2.90;;
51451;SDS011;37521;52.020;-1.740;2022-09-09T12:09:22;5.63;;;3.20;;
51451;SDS011;37521;52.020;-1.740;2022-09-09T12:14:58;2.55;;;2.35;;
51451;SDS011;37521;52.020;-1.740;2022-09-09T12:17:29;5.32;;;2.75;;
51451;SDS011;37521;52.020;-1.740;2022-09-09T12:20:02;5.32;;;3.25;;
51451;SDS011;37521;52.020;-1.740;2022-09-09T12:22:40;5.15;;;2.85;;
51451;SDS011;37521;52.020;-1.740;2022-09-09T12:25:20;3.45;;;2.38;;
51451;SDS011;37521;52.020;-1.740;2022-09-09T12:27:58;3.22;;;2.75;;
51451;SDS011;37521;52.020;-1.740;2022-09-09T12:30:34;5.60;;;2.22;;
51451;SDS011;37521;52.020;-1.740;2022-09-09T12:33:12;4.50;;;2.88;;
51451;SDS011;37521;52.020;-1.740;2022-09-09T12:35:44;3.17;;;2.35;;
51451;SDS011;37521;52.020;-1.740;2022-09-09T12:38:20;4.35;;;2.65;;
51451;SDS011;37521;52.020;-1.740;2022-09-09T12:40:57;3.95;;;2.17;;
51451;SDS011;37521;52.020;-1.740;2022-09-09T12:43:27;3.08;;;2.70;;
51451;SDS011;37521;52.020;-1.740;2022-09-09T12:45:56;4.28;;;2.38;;
51451;SDS011;37521;52.020;-1.740;2022-09-09T12:48:30;4.28;;;2.50;;
51451;SDS011;37521;52.020;-1.740;2022-09-09T12:51:03;3.47;;;2.70;;
51451;SDS011;37521;52.020;-1.740;2022-09-09T12:53:36;6.20;;;3.50;;
51451;SDS011;37521;52.020;-1.740;2022-09-09T12:56:06;9.50;;;3.35;;
51451;SDS011;37521;52.020;-1.740;2022-09-09T12:58:37;7.13;;;2.88;;
51451;SDS011;37521;52.020;-1.740;2022-09-09T13:01:17;7.38;;;3.40;;
51451;SDS011;37521;52.020;-1.740;2022-09-09T13:03:49;6.40;;;2.72;;
51451;SDS011;37521;52.020;-1.740;2022-09-09T13:06:19;5.30;;;3.33;;
51451;SDS011;37521;52.020;-1.740;2022-09-09T13:08:56;6.90;;;3.60;;
51451;SDS011;37521;52.020;-1.740;2022-09-09T13:11:26;4.57;;;3.03;;
51451;SDS011;37521;52.020;-1.740;2022-09-09T13:13:57;5.28;;;3.50;;
51451;SDS011;37521;52.020;-1.740;2022-09-09T13:16:27;5.25;;;3.40;;
51451;SDS011;37521;52.020;-1.740;2022-09-09T13:19:01;7.57;;;3.90;;
51451;SDS011;37521;52.020;-1.740;2022-09-09T13:21:35;4.85;;;2.88;;
51451;SDS011;37521;52.020;-1.740;2022-09-09T13:24:06;3.95;;;3.03;;
51451;SDS011;37521;52.020;-1.740;2022-09-09T13:26:54;6.68;;;2.95;;
51451;SDS011;37521;52.020;-1.740;2022-09-09T13:29:23;6.00;;;3.80;;
51451;SDS011;37521;52.020;-1.740;2022-09-09T13:31:51;5.43;;;3.15;;
51451;SDS011;37521;52.020;-1.740;2022-09-09T13:34:26;6.28;;;2.83;;
51451;SDS011;37521;52.020;-1.740;2022-09-09T13:36:57;4.80;;;3.10;;
51451;SDS011;37521;52.020;-1.740;2022-09-09T13:39:31;3.30;;;2.33;;
51451;SDS011;37521;52.020;-1.740;2022-09-09T13:42:01;4.18;;;2.95;;
51451;SDS011;37521;52.020;-1.740;2022-09-09T13:44:31;5.47;;;2.67;;
51451;SDS011;37521;52.020;-1.740;2022-09-09T13:47:04;4.93;;;3.00;;
51451;SDS011;37521;52.020;-1.740;2022-09-09T13:49:36;4.30;;;2.80;;
51451;SDS011;37521;52.020;-1.740;2022-09-09T13:52:05;4.38;;;2.40;;
51451;SDS011;37521;52.020;-1.740;2022-09-09T13:57:14;5.03;;;3.13;;
51451;SDS011;37521;52.020;-1.740;2022-09-09T13:59:44;4.80;;;2.80;;
51451;SDS011;37521;52.020;-1.740;2022-09-09T14:02:30;5.63;;;3.00;;
51451;SDS011;37521;52.020;-1.740;2022-09-09T14:04:59;5.43;;;3.03;;
51451;SDS011;37521;52.020;-1.740;2022-09-09T14:07:27;5.50;;;2.92;;
51451;SDS011;37521;52.020;-1.740;2022-09-09T14:09:57;6.78;;;3.55;;
51451;SDS011;37521;52.020;-1.740;2022-09-09T14:12:27;5.93;;;3.92;;
51451;SDS011;37521;52.020;-1.740;2022-09-09T14:14:55;6.25;;;3.78;;
51451;SDS011;37521;52.020;-1.740;2022-09-09T14:17:23;5.47;;;2.95;;
51451;SDS011;37521;52.020;-1.740;2022-09-09T14:19:55;4.90;;;2.83;;
51451;SDS011;37521;52.020;-1.740;2022-09-09T14:22:41;6.97;;;4.15;;
51451;SDS011;37521;52.020;-1.740;2022-09-09T14:28:00;5.97;;;3.95;;
51451;SDS011;37521;52.020;-1.740;2022-09-09T14:30:28;10.80;;;3.53;;
51451;SDS011;37521;52.020;-1.740;2022-09-09T14:32:56;5.13;;;2.97;;
51451;SDS011;37521;52.020;-1.740;2022-09-09T14:35:24;4.60;;;2.60;;
51451;SDS011;37521;52.020;-1.740;2022-09-09T14:37:53;3.33;;;2.58;;
51451;SDS011;37521;52.020;-1.740;2022-09-09T14:40:23;4.93;;;3.28;;
51451;SDS011;37521;52.020;-1.740;2022-09-09T14:42:53;5.82;;;2.85;;
51451;SDS011;37521;52.020;-1.740;2022-09-09T14:45:22;6.03;;;3.08;;
51451;SDS011;37521;52.020;-1.740;2022-09-09T14:47:51;3.72;;;2.97;;
51451;SDS011;37521;52.020;-1.740;2022-09-09T14:50:20;4.75;;;3.25;;
51451;SDS011;37521;52.020;-1.740;2022-09-09T14:52:49;4.63;;;3.17;;
51451;SDS011;37521;52.020;-1.740;2022-09-09T14:55:18;3.88;;;2.63;;
51451;SDS011;37521;52.020;-1.740;2022-09-09T14:57:46;5.78;;;2.80;;
51451;SDS011;37521;52.020;-1.740;2022-09-09T15:00:15;4.80;;;3.10;;
51451;SDS011;37521;52.020;-1.740;2022-09-09T15:02:44;5.35;;;3.00;;
51451;SDS011;37521;52.020;-1.740;2022-09-09T15:05:12;5.50;;;3.90;;
51451;SDS011;37521;52.020;-1.740;2022-09-09T15:07:41;10.82;;;5.00;;
51451;SDS011;37521;52.020;-1.740;2022-09-09T15:10:09;9.43;;;5.10;;
51451;SDS011;37521;52.020;-1.740;2022-09-09T15:12:37;7.72;;;4.40;;
51451;SDS011;37521;52.020;-1.740;2022-09-09T15:15:06;6.68;;;4.25;;
51451;SDS011;37521;52.020;-1.740;2022-09-09T15:17:36;5.90;;;3.35;;
51451;SDS011;37521;52.020;-1.740;2022-09-09T15:20:04;5.15;;;3.50;;
51451;SDS011;37521;52.020;-1.740;2022-09-09T15:22:33;6.22;;;3.83;;
51451;SDS011;37521;52.020;-1.740;2022-09-09T15:25:04;6.43;;;3.78;;
51451;SDS011;37521;52.020;-1.740;2022-09-09T15:27:34;6.55;;;3.97;;